sensor_id;sensor_type;location;lat;lon;timestamp;P1;durP1;ratioP1;P2;durP2;ratioP2
3571;SDS011;7958;53.024;12.970;2022-12-07T00:01:14;7.30;;;5.53;;
3571;SDS011;7958;53.024;12.970;2022-12-07T00:03:44;7.60;;;5.47;;
3571;SDS011;7958;53.024;12.970;2022-12-07T00:06:12;7.50;;;5.53;;
3571;SDS011;7958;53.024;12.970;2022-12-07T00:08:39;8.57;;;5.83;;
3571;SDS011;7958;53.024;12.970;2022-12-07T00:11:06;8.50;;;6.30;;
3571;SDS011;7958;53.024;12.970;2022-12-07T00:13:34;9.97;;;6.27;;
3571;SDS011;7958;53.024;12.970;2022-12-07T00:16:01;15.90;;;8.20;;
3571;SDS011;7958;53.024;12.970;2022-12-07T00:18:27;9.53;;;6.30;;
3571;SDS011;7958;53.024;12.970;2022-12-07T00:21:00;8.30;;;6.17;;
3571;SDS011;7958;53.024;12.970;2022-12-07T00:23:27;10.07;;;6.80;;
3571;SDS011;7958;53.024;12.970;2022-12-07T00:25:54;9.20;;;6.73;;
3571;SDS011;7958;53.024;12.970;2022-12-07T00:28:20;10.20;;;6.93;;
3571;SDS011;7958;53.024;12.970;2022-12-07T00:30:46;9.57;;;7.00;;
3571;SDS011;7958;53.024;12.970;2022-12-07T00:33:12;9.83;;;6.60;;
3571;SDS011;7958;53.024;12.970;2022-12-07T00:35:39;10.40;;;6.80;;
3571;SDS011;7958;53.024;12.970;2022-12-07T00:38:06;10.40;;;6.97;;
3571;SDS011;7958;53.024;12.970;2022-12-07T00:40:33;11.07;;;7.20;;
3571;SDS011;7958;53.024;12.970;2022-12-07T00:42:59;11.03;;;7.43;;
3571;SDS011;7958;53.024;12.970;2022-12-07T00:45:25;8.87;;;6.97;;
3571;SDS011;7958;53.024;12.970;2022-12-07T00:47:52;11.30;;;7.20;;
3571;SDS011;7958;53.024;12.970;2022-12-07T00:50:18;11.23;;;7.40;;
3571;SDS011;7958;53.024;12.970;2022-12-07T00:52:44;11.27;;;7.93;;
3571;SDS011;7958;53.024;12.970;2022-12-07T00:55:12;9.53;;;6.70;;
3571;SDS011;7958;53.024;12.970;2022-12-07T00:57:38;10.57;;;7.30;;
3571;SDS011;7958;53.024;12.970;2022-12-07T01:00:05;10.67;;;7.30;;
3571;SDS011;7958;53.024;12.970;2022-12-07T01:02:33;12.03;;;7.20;;
3571;SDS011;7958;53.024;12.970;2022-12-07T01:04:59;9.83;;;7.30;;
3571;SDS011;7958;53.024;12.970;2022-12-07T01:07:25;11.40;;;7.17;;
3571;SDS011;7958;53.024;12.970;2022-12-07T01:09:52;10.80;;;7.30;;
3571;SDS011;7958;53.024;12.970;2022-12-07T01:12:19;11.93;;;7.67;;
3571;SDS011;7958;53.024;12.970;2022-12-07T01:14:46;9.27;;;6.30;;
3571;SDS011;7958;53.024;12.970;2022-12-07T01:17:12;14.93;;;7.70;;
3571;SDS011;7958;53.024;12.970;2022-12-07T01:19:38;14.27;;;6.63;;
3571;SDS011;7958;53.024;12.970;2022-12-07T01:22:05;11.07;;;7.23;;
3571;SDS011;7958;53.024;12.970;2022-12-07T01:24:31;9.53;;;6.80;;
3571;SDS011;7958;53.024;12.970;2022-12-07T01:26:57;10.43;;;6.97;;
3571;SDS011;7958;53.024;12.970;2022-12-07T01:29:25;11.70;;;7.50;;
3571;SDS011;7958;53.024;12.970;2022-12-07T01:31:51;10.07;;;6.90;;
3571;SDS011;7958;53.024;12.970;2022-12-07T01:34:18;17.03;;;7.80;;
3571;SDS011;7958;53.024;12.970;2022-12-07T01:36:44;10.50;;;6.93;;
3571;SDS011;7958;53.024;12.970;2022-12-07T01:39:10;9.53;;;6.63;;
3571;SDS011;7958;53.024;12.970;2022-12-07T01:41:37;11.80;;;7.20;;
3571;SDS011;7958;53.024;12.970;2022-12-07T01:44:09;12.70;;;7.00;;
3571;SDS011;7958;53.024;12.970;2022-12-07T01:46:39;13.10;;;8.00;;
3571;SDS011;7958;53.024;12.970;2022-12-07T01:49:08;10.10;;;6.57;;
3571;SDS011;7958;53.024;12.970;2022-12-07T01:51:36;10.70;;;6.90;;
3571;SDS011;7958;53.024;12.970;2022-12-07T01:54:04;9.73;;;6.40;;
3571;SDS011;7958;53.024;12.970;2022-12-07T01:56:31;10.47;;;6.30;;
3571;SDS011;7958;53.024;12.970;2022-12-07T01:58:58;11.33;;;6.67;;
3571;SDS011;7958;53.024;12.970;2022-12-07T02:01:25;11.23;;;6.67;;
3571;SDS011;7958;53.024;12.970;2022-12-07T02:03:52;12.33;;;7.20;;
3571;SDS011;7958;53.024;12.970;2022-12-07T02:06:21;12.07;;;6.77;;
3571;SDS011;7958;53.024;12.970;2022-12-07T02:08:49;11.70;;;6.97;;
3571;SDS011;7958;53.024;12.970;2022-12-07T02:11:16;10.63;;;6.03;;
3571;SDS011;7958;53.024;12.970;2022-12-07T02:13:42;11.67;;;6.80;;
3571;SDS011;7958;53.024;12.970;2022-12-07T02:16:12;12.83;;;7.00;;
3571;SDS011;7958;53.024;12.970;2022-12-07T02:18:48;11.43;;;6.40;;
3571;SDS011;7958;53.024;12.970;2022-12-07T02:21:29;9.07;;;5.80;;
3571;SDS011;7958;53.024;12.970;2022-12-07T02:24:05;11.20;;;6.97;;
3571;SDS011;7958;53.024;12.970;2022-12-07T02:26:52;9.93;;;5.70;;
3571;SDS011;7958;53.024;12.970;2022-12-07T02:29:30;12.40;;;6.27;;
3571;SDS011;7958;53.024;12.970;2022-12-07T02:32:02;9.60;;;5.50;;
3571;SDS011;7958;53.024;12.970;2022-12-07T02:34:34;8.43;;;5.90;;
3571;SDS011;7958;53.024;12.970;2022-12-07T02:37:08;7.27;;;5.77;;
3571;SDS011;7958;53.024;12.970;2022-12-07T02:39:37;11.00;;;6.10;;
3571;SDS011;7958;53.024;12.970;2022-12-07T02:42:09;9.83;;;6.00;;
3571;SDS011;7958;53.024;12.970;2022-12-07T02:47:37;8.83;;;5.60;;
3571;SDS011;7958;53.024;12.970;2022-12-07T02:50:04;12.63;;;6.70;;
3571;SDS011;7958;53.024;12.970;2022-12-07T02:52:31;10.07;;;6.13;;
3571;SDS011;7958;53.024;12.970;2022-12-07T02:54:57;11.70;;;6.80;;
3571;SDS011;7958;53.024;12.970;2022-12-07T03:00:17;8.70;;;5.97;;
3571;SDS011;7958;53.024;12.970;2022-12-07T03:02:48;8.80;;;5.70;;
3571;SDS011;7958;53.024;12.970;2022-12-07T03:05:21;11.07;;;6.10;;
3571;SDS011;7958;53.024;12.970;2022-12-07T03:07:56;8.40;;;5.57;;
3571;SDS011;7958;53.024;12.970;2022-12-07T03:10:27;8.90;;;5.90;;
3571;SDS011;7958;53.024;12.970;2022-12-07T03:13:03;12.23;;;6.80;;
3571;SDS011;7958;53.024;12.970;2022-12-07T03:15:33;9.83;;;5.67;;
3571;SDS011;7958;53.024;12.970;2022-12-07T03:18:03;10.00;;;7.00;;
3571;SDS011;7958;53.024;12.970;2022-12-07T03:20:30;11.43;;;6.80;;
3571;SDS011;7958;53.024;12.970;2022-12-07T03:25:53;8.57;;;5.77;;
3571;SDS011;7958;53.024;12.970;2022-12-07T03:28:23;10.30;;;5.87;;
3571;SDS011;7958;53.024;12.970;2022-12-07T03:30:51;8.37;;;6.40;;
3571;SDS011;7958;53.024;12.970;2022-12-07T03:33:23;10.93;;;6.57;;
3571;SDS011;7958;53.024;12.970;2022-12-07T03:35:54;12.67;;;6.63;;
3571;SDS011;7958;53.024;12.970;2022-12-07T03:38:42;16.00;;;6.37;;
3571;SDS011;7958;53.024;12.970;2022-12-07T03:41:13;11.53;;;6.70;;
3571;SDS011;7958;53.024;12.970;2022-12-07T03:43:43;10.23;;;6.50;;
3571;SDS011;7958;53.024;12.970;2022-12-07T03:46:19;9.40;;;6.60;;
3571;SDS011;7958;53.024;12.970;2022-12-07T03:48:53;12.20;;;6.37;;
3571;SDS011;7958;53.024;12.970;2022-12-07T03:51:24;11.73;;;6.10;;
3571;SDS011;7958;53.024;12.970;2022-12-07T03:53:54;9.53;;;6.17;;
3571;SDS011;7958;53.024;12.970;2022-12-07T03:56:24;11.77;;;6.43;;
3571;SDS011;7958;53.024;12.970;2022-12-07T03:58:52;8.87;;;6.37;;
3571;SDS011;7958;53.024;12.970;2022-12-07T04:01:19;10.63;;;6.53;;
3571;SDS011;7958;53.024;12.970;2022-12-07T04:03:46;9.77;;;5.83;;
3571;SDS011;7958;53.024;12.970;2022-12-07T04:06:13;10.90;;;6.33;;
3571;SDS011;7958;53.024;12.970;2022-12-07T04:08:40;11.90;;;7.80;;
3571;SDS011;7958;53.024;12.970;2022-12-07T04:11:06;15.90;;;8.70;;
3571;SDS011;7958;53.024;12.970;2022-12-07T04:13:33;16.23;;;8.87;;
3571;SDS011;7958;53.024;12.970;2022-12-07T04:16:20;23.73;;;9.10;;
3571;SDS011;7958;53.024;12.970;2022-12-07T04:18:46;15.40;;;9.23;;
3571;SDS011;7958;53.024;12.970;2022-12-07T04:21:14;14.50;;;9.37;;
3571;SDS011;7958;53.024;12.970;2022-12-07T04:23:40;17.70;;;10.43;;
3571;SDS011;7958;53.024;12.970;2022-12-07T04:26:07;18.23;;;9.80;;
3571;SDS011;7958;53.024;12.970;2022-12-07T04:28:33;23.37;;;10.30;;
3571;SDS011;7958;53.024;12.970;2022-12-07T04:31:00;16.00;;;9.20;;
3571;SDS011;7958;53.024;12.970;2022-12-07T04:33:26;18.63;;;9.93;;
3571;SDS011;7958;53.024;12.970;2022-12-07T04:35:53;19.97;;;10.53;;
3571;SDS011;7958;53.024;12.970;2022-12-07T04:38:21;21.87;;;10.60;;
3571;SDS011;7958;53.024;12.970;2022-12-07T04:40:47;24.83;;;11.87;;
3571;SDS011;7958;53.024;12.970;2022-12-07T04:43:14;30.53;;;12.83;;
3571;SDS011;7958;53.024;12.970;2022-12-07T04:45:44;23.23;;;12.30;;
3571;SDS011;7958;53.024;12.970;2022-12-07T04:48:11;25.27;;;13.40;;
3571;SDS011;7958;53.024;12.970;2022-12-07T04:50:38;27.00;;;13.60;;
3571;SDS011;7958;53.024;12.970;2022-12-07T04:53:04;27.63;;;13.97;;
3571;SDS011;7958;53.024;12.970;2022-12-07T04:55:32;32.20;;;14.17;;
3571;SDS011;7958;53.024;12.970;2022-12-07T04:57:59;31.57;;;14.80;;
3571;SDS011;7958;53.024;12.970;2022-12-07T05:00:26;30.07;;;14.10;;
3571;SDS011;7958;53.024;12.970;2022-12-07T05:02:53;29.27;;;14.40;;
3571;SDS011;7958;53.024;12.970;2022-12-07T05:05:19;25.77;;;12.63;;
3571;SDS011;7958;53.024;12.970;2022-12-07T05:07:46;22.20;;;11.57;;
3571;SDS011;7958;53.024;12.970;2022-12-07T05:10:12;20.90;;;12.03;;
3571;SDS011;7958;53.024;12.970;2022-12-07T05:12:40;21.33;;;11.60;;
3571;SDS011;7958;53.024;12.970;2022-12-07T05:15:07;21.50;;;10.80;;
3571;SDS011;7958;53.024;12.970;2022-12-07T05:17:34;16.90;;;10.87;;
3571;SDS011;7958;53.024;12.970;2022-12-07T05:20:00;23.10;;;13.37;;
3571;SDS011;7958;53.024;12.970;2022-12-07T05:22:27;22.77;;;11.77;;
3571;SDS011;7958;53.024;12.970;2022-12-07T05:24:53;22.80;;;11.27;;
3571;SDS011;7958;53.024;12.970;2022-12-07T05:27:20;26.53;;;11.77;;
3571;SDS011;7958;53.024;12.970;2022-12-07T05:29:49;24.50;;;14.20;;
3571;SDS011;7958;53.024;12.970;2022-12-07T05:32:15;18.90;;;11.27;;
3571;SDS011;7958;53.024;12.970;2022-12-07T05:34:41;22.83;;;13.23;;
3571;SDS011;7958;53.024;12.970;2022-12-07T05:37:08;19.13;;;11.57;;
3571;SDS011;7958;53.024;12.970;2022-12-07T05:39:34;19.63;;;10.87;;
3571;SDS011;7958;53.024;12.970;2022-12-07T05:42:02;19.90;;;10.43;;
3571;SDS011;7958;53.024;12.970;2022-12-07T05:44:38;20.80;;;10.33;;
3571;SDS011;7958;53.024;12.970;2022-12-07T05:47:15;21.80;;;11.63;;
3571;SDS011;7958;53.024;12.970;2022-12-07T05:49:42;26.50;;;13.13;;
3571;SDS011;7958;53.024;12.970;2022-12-07T05:52:09;21.20;;;11.17;;
3571;SDS011;7958;53.024;12.970;2022-12-07T05:54:35;22.80;;;10.77;;
3571;SDS011;7958;53.024;12.970;2022-12-07T05:57:02;21.83;;;11.87;;
3571;SDS011;7958;53.024;12.970;2022-12-07T05:59:28;21.30;;;11.50;;
3571;SDS011;7958;53.024;12.970;2022-12-07T06:01:54;24.20;;;10.73;;
3571;SDS011;7958;53.024;12.970;2022-12-07T06:04:23;17.30;;;9.70;;
3571;SDS011;7958;53.024;12.970;2022-12-07T06:06:51;18.00;;;10.10;;
3571;SDS011;7958;53.024;12.970;2022-12-07T06:09:18;18.43;;;10.00;;
3571;SDS011;7958;53.024;12.970;2022-12-07T06:11:45;16.90;;;9.73;;
3571;SDS011;7958;53.024;12.970;2022-12-07T06:14:29;22.53;;;10.73;;
3571;SDS011;7958;53.024;12.970;2022-12-07T06:16:56;19.20;;;10.40;;
3571;SDS011;7958;53.024;12.970;2022-12-07T06:19:24;18.10;;;10.27;;
3571;SDS011;7958;53.024;12.970;2022-12-07T06:21:50;16.30;;;8.73;;
3571;SDS011;7958;53.024;12.970;2022-12-07T06:24:17;14.27;;;7.73;;
3571;SDS011;7958;53.024;12.970;2022-12-07T06:26:44;11.87;;;7.40;;
3571;SDS011;7958;53.024;12.970;2022-12-07T06:29:11;12.90;;;7.57;;
3571;SDS011;7958;53.024;12.970;2022-12-07T06:31:38;11.97;;;7.30;;
3571;SDS011;7958;53.024;12.970;2022-12-07T06:34:06;13.03;;;7.60;;
3571;SDS011;7958;53.024;12.970;2022-12-07T06:36:34;10.07;;;6.63;;
3571;SDS011;7958;53.024;12.970;2022-12-07T06:39:01;10.93;;;6.83;;
3571;SDS011;7958;53.024;12.970;2022-12-07T06:41:28;11.23;;;6.20;;
3571;SDS011;7958;53.024;12.970;2022-12-07T06:43:54;10.20;;;7.00;;
3571;SDS011;7958;53.024;12.970;2022-12-07T06:46:21;9.47;;;6.63;;
3571;SDS011;7958;53.024;12.970;2022-12-07T06:48:47;11.73;;;7.00;;
3571;SDS011;7958;53.024;12.970;2022-12-07T06:51:14;9.80;;;6.20;;
3571;SDS011;7958;53.024;12.970;2022-12-07T06:53:41;7.67;;;5.63;;
3571;SDS011;7958;53.024;12.970;2022-12-07T06:56:08;9.70;;;5.90;;
3571;SDS011;7958;53.024;12.970;2022-12-07T06:58:34;9.57;;;4.77;;
3571;SDS011;7958;53.024;12.970;2022-12-07T07:01:01;7.43;;;4.80;;
3571;SDS011;7958;53.024;12.970;2022-12-07T07:03:29;6.37;;;4.60;;
3571;SDS011;7958;53.024;12.970;2022-12-07T07:05:56;6.17;;;4.50;;
3571;SDS011;7958;53.024;12.970;2022-12-07T07:08:22;5.93;;;4.80;;
3571;SDS011;7958;53.024;12.970;2022-12-07T07:10:51;10.33;;;5.60;;
3571;SDS011;7958;53.024;12.970;2022-12-07T07:13:17;5.87;;;4.80;;
3571;SDS011;7958;53.024;12.970;2022-12-07T07:15:44;8.00;;;4.20;;
3571;SDS011;7958;53.024;12.970;2022-12-07T07:18:12;5.07;;;4.47;;
3571;SDS011;7958;53.024;12.970;2022-12-07T07:20:40;7.67;;;4.20;;
3571;SDS011;7958;53.024;12.970;2022-12-07T07:23:08;5.73;;;4.60;;
3571;SDS011;7958;53.024;12.970;2022-12-07T07:48:57;8.80;;;5.70;;
3571;SDS011;7958;53.024;12.970;2022-12-07T07:51:23;5.73;;;4.90;;
3571;SDS011;7958;53.024;12.970;2022-12-07T07:53:49;7.93;;;5.47;;
3571;SDS011;7958;53.024;12.970;2022-12-07T07:56:16;5.70;;;4.20;;
3571;SDS011;7958;53.024;12.970;2022-12-07T07:58:42;8.27;;;5.27;;
3571;SDS011;7958;53.024;12.970;2022-12-07T08:01:09;8.40;;;4.77;;
3571;SDS011;7958;53.024;12.970;2022-12-07T08:03:35;5.90;;;5.10;;
3571;SDS011;7958;53.024;12.970;2022-12-07T08:06:03;6.90;;;5.23;;
3571;SDS011;7958;53.024;12.970;2022-12-07T08:08:30;7.87;;;5.17;;
3571;SDS011;7958;53.024;12.970;2022-12-07T08:10:56;7.43;;;5.33;;
3571;SDS011;7958;53.024;12.970;2022-12-07T08:13:25;5.83;;;4.77;;
3571;SDS011;7958;53.024;12.970;2022-12-07T08:15:52;7.50;;;4.57;;
3571;SDS011;7958;53.024;12.970;2022-12-07T08:18:18;10.80;;;5.20;;
3571;SDS011;7958;53.024;12.970;2022-12-07T08:20:44;9.03;;;5.50;;
3571;SDS011;7958;53.024;12.970;2022-12-07T08:23:12;6.20;;;4.93;;
3571;SDS011;7958;53.024;12.970;2022-12-07T08:25:39;8.13;;;5.40;;
3571;SDS011;7958;53.024;12.970;2022-12-07T08:28:05;7.47;;;4.40;;
3571;SDS011;7958;53.024;12.970;2022-12-07T08:30:32;6.07;;;4.57;;
3571;SDS011;7958;53.024;12.970;2022-12-07T08:32:58;7.40;;;4.87;;
3571;SDS011;7958;53.024;12.970;2022-12-07T08:35:24;7.30;;;4.57;;
3571;SDS011;7958;53.024;12.970;2022-12-07T08:37:51;6.07;;;4.40;;
3571;SDS011;7958;53.024;12.970;2022-12-07T08:40:18;5.70;;;4.27;;
3571;SDS011;7958;53.024;12.970;2022-12-07T08:42:48;4.83;;;4.20;;
3571;SDS011;7958;53.024;12.970;2022-12-07T08:48:01;4.23;;;3.83;;
3571;SDS011;7958;53.024;12.970;2022-12-07T08:50:28;4.03;;;3.30;;
3571;SDS011;7958;53.024;12.970;2022-12-07T08:52:58;4.77;;;3.67;;
3571;SDS011;7958;53.024;12.970;2022-12-07T08:55:36;5.83;;;3.60;;
3571;SDS011;7958;53.024;12.970;2022-12-07T08:58:02;4.20;;;3.30;;
3571;SDS011;7958;53.024;12.970;2022-12-07T09:00:38;7.80;;;3.97;;
3571;SDS011;7958;53.024;12.970;2022-12-07T09:03:13;4.23;;;2.93;;
3571;SDS011;7958;53.024;12.970;2022-12-07T09:05:40;7.40;;;4.30;;
3571;SDS011;7958;53.024;12.970;2022-12-07T09:08:06;4.83;;;4.00;;
3571;SDS011;7958;53.024;12.970;2022-12-07T09:10:33;3.27;;;2.70;;
3571;SDS011;7958;53.024;12.970;2022-12-07T09:13:01;6.70;;;3.00;;
3571;SDS011;7958;53.024;12.970;2022-12-07T09:15:27;3.80;;;2.90;;
3571;SDS011;7958;53.024;12.970;2022-12-07T09:17:54;4.73;;;3.87;;
3571;SDS011;7958;53.024;12.970;2022-12-07T09:20:20;3.70;;;3.27;;
3571;SDS011;7958;53.024;12.970;2022-12-07T09:22:47;2.57;;;2.37;;
3571;SDS011;7958;53.024;12.970;2022-12-07T09:25:13;3.23;;;2.93;;
3571;SDS011;7958;53.024;12.970;2022-12-07T09:27:40;3.83;;;2.80;;
3571;SDS011;7958;53.024;12.970;2022-12-07T09:30:08;4.90;;;3.07;;
3571;SDS011;7958;53.024;12.970;2022-12-07T09:32:35;3.63;;;3.23;;
3571;SDS011;7958;53.024;12.970;2022-12-07T09:35:01;3.70;;;3.20;;
3571;SDS011;7958;53.024;12.970;2022-12-07T09:37:28;3.80;;;3.50;;
3571;SDS011;7958;53.024;12.970;2022-12-07T09:39:56;4.43;;;3.50;;
3571;SDS011;7958;53.024;12.970;2022-12-07T09:42:26;3.53;;;3.23;;
3571;SDS011;7958;53.024;12.970;2022-12-07T09:44:54;2.90;;;2.70;;
3571;SDS011;7958;53.024;12.970;2022-12-07T09:47:21;2.77;;;2.57;;
3571;SDS011;7958;53.024;12.970;2022-12-07T09:49:48;2.50;;;2.30;;
3571;SDS011;7958;53.024;12.970;2022-12-07T09:52:18;3.30;;;2.90;;
3571;SDS011;7958;53.024;12.970;2022-12-07T09:54:46;3.10;;;2.40;;
3571;SDS011;7958;53.024;12.970;2022-12-07T09:57:13;2.43;;;2.23;;
3571;SDS011;7958;53.024;12.970;2022-12-07T09:59:40;2.20;;;2.07;;
3571;SDS011;7958;53.024;12.970;2022-12-07T10:02:19;2.00;;;1.90;;
3571;SDS011;7958;53.024;12.970;2022-12-07T10:04:51;2.50;;;2.30;;
3571;SDS011;7958;53.024;12.970;2022-12-07T10:07:18;2.97;;;2.57;;
3571;SDS011;7958;53.024;12.970;2022-12-07T10:09:45;3.10;;;2.57;;
3571;SDS011;7958;53.024;12.970;2022-12-07T10:12:11;2.80;;;2.10;;
3571;SDS011;7958;53.024;12.970;2022-12-07T10:14:52;2.17;;;2.07;;
3571;SDS011;7958;53.024;12.970;2022-12-07T10:17:34;2.67;;;2.47;;
3571;SDS011;7958;53.024;12.970;2022-12-07T10:20:14;2.63;;;2.43;;
3571;SDS011;7958;53.024;12.970;2022-12-07T10:22:56;3.57;;;2.93;;
3571;SDS011;7958;53.024;12.970;2022-12-07T10:25:27;2.47;;;2.30;;
3571;SDS011;7958;53.024;12.970;2022-12-07T10:27:57;2.60;;;2.30;;
3571;SDS011;7958;53.024;12.970;2022-12-07T10:30:25;3.63;;;2.63;;
3571;SDS011;7958;53.024;12.970;2022-12-07T10:32:54;4.33;;;2.67;;
3571;SDS011;7958;53.024;12.970;2022-12-07T10:35:23;2.77;;;2.50;;
3571;SDS011;7958;53.024;12.970;2022-12-07T10:37:51;2.80;;;2.60;;
3571;SDS011;7958;53.024;12.970;2022-12-07T10:43:14;3.37;;;2.83;;
3571;SDS011;7958;53.024;12.970;2022-12-07T10:45:45;3.40;;;3.10;;
3571;SDS011;7958;53.024;12.970;2022-12-07T10:48:33;3.30;;;3.00;;
3571;SDS011;7958;53.024;12.970;2022-12-07T10:51:02;3.03;;;2.83;;
3571;SDS011;7958;53.024;12.970;2022-12-07T10:56:23;12.10;;;10.03;;
3571;SDS011;7958;53.024;12.970;2022-12-07T10:58:59;9.70;;;7.50;;
3571;SDS011;7958;53.024;12.970;2022-12-07T11:01:33;12.40;;;8.73;;
3571;SDS011;7958;53.024;12.970;2022-12-07T11:04:11;51.50;;;30.10;;
3571;SDS011;7958;53.024;12.970;2022-12-07T11:06:44;29.77;;;15.77;;
3571;SDS011;7958;53.024;12.970;2022-12-07T11:12:20;32.20;;;21.20;;
3571;SDS011;7958;53.024;12.970;2022-12-07T11:14:52;80.70;;;47.40;;
3571;SDS011;7958;53.024;12.970;2022-12-07T11:17:24;15.87;;;10.77;;
3571;SDS011;7958;53.024;12.970;2022-12-07T11:20:03;13.07;;;9.70;;
3571;SDS011;7958;53.024;12.970;2022-12-07T11:22:34;46.60;;;25.17;;
3571;SDS011;7958;53.024;12.970;2022-12-07T11:25:13;17.60;;;10.23;;
3571;SDS011;7958;53.024;12.970;2022-12-07T11:27:46;6.00;;;4.67;;
3571;SDS011;7958;53.024;12.970;2022-12-07T11:30:17;9.10;;;7.17;;
3571;SDS011;7958;53.024;12.970;2022-12-07T11:35:43;4.27;;;3.60;;
3571;SDS011;7958;53.024;12.970;2022-12-07T11:38:17;2.93;;;2.63;;
3571;SDS011;7958;53.024;12.970;2022-12-07T11:40:45;3.77;;;3.47;;
3571;SDS011;7958;53.024;12.970;2022-12-07T11:43:17;3.93;;;3.63;;
3571;SDS011;7958;53.024;12.970;2022-12-07T11:53:35;4.33;;;2.83;;
3571;SDS011;7958;53.024;12.970;2022-12-07T11:56:06;3.83;;;2.87;;
3571;SDS011;7958;53.024;12.970;2022-12-07T11:58:45;2.93;;;2.70;;
3571;SDS011;7958;53.024;12.970;2022-12-07T12:01:18;6.87;;;3.20;;
3571;SDS011;7958;53.024;12.970;2022-12-07T12:03:53;6.47;;;3.10;;
3571;SDS011;7958;53.024;12.970;2022-12-07T12:06:23;3.90;;;3.10;;
3571;SDS011;7958;53.024;12.970;2022-12-07T12:08:53;3.63;;;3.33;;
3571;SDS011;7958;53.024;12.970;2022-12-07T12:11:25;6.53;;;4.07;;
3571;SDS011;7958;53.024;12.970;2022-12-07T12:14:02;3.10;;;2.80;;
3571;SDS011;7958;53.024;12.970;2022-12-07T12:16:48;3.03;;;2.83;;
3571;SDS011;7958;53.024;12.970;2022-12-07T12:19:24;4.57;;;3.23;;
3571;SDS011;7958;53.024;12.970;2022-12-07T12:21:54;6.47;;;3.00;;
3571;SDS011;7958;53.024;12.970;2022-12-07T12:24:24;4.23;;;2.80;;
3571;SDS011;7958;53.024;12.970;2022-12-07T12:26:52;4.70;;;4.27;;
3571;SDS011;7958;53.024;12.970;2022-12-07T12:29:21;4.43;;;4.03;;
3571;SDS011;7958;53.024;12.970;2022-12-07T12:32:04;7.83;;;5.67;;
3571;SDS011;7958;53.024;12.970;2022-12-07T12:34:38;6.30;;;4.90;;
3571;SDS011;7958;53.024;12.970;2022-12-07T12:49:15;2.53;;;1.93;;
3571;SDS011;7958;53.024;12.970;2022-12-07T12:51:59;2.20;;;1.63;;
3571;SDS011;7958;53.024;12.970;2022-12-07T12:54:28;4.37;;;1.80;;
3571;SDS011;7958;53.024;12.970;2022-12-07T12:56:58;4.70;;;2.13;;
3571;SDS011;7958;53.024;12.970;2022-12-07T12:59:27;3.10;;;1.40;;
3571;SDS011;7958;53.024;12.970;2022-12-07T13:01:56;3.60;;;1.50;;
3571;SDS011;7958;53.024;12.970;2022-12-07T13:04:49;2.87;;;1.90;;
3571;SDS011;7958;53.024;12.970;2022-12-07T13:10:23;1.70;;;1.60;;
3571;SDS011;7958;53.024;12.970;2022-12-07T13:12:57;3.10;;;1.60;;
3571;SDS011;7958;53.024;12.970;2022-12-07T13:15:35;5.13;;;1.37;;
3571;SDS011;7958;53.024;12.970;2022-12-07T13:20:49;1.90;;;1.50;;
3571;SDS011;7958;53.024;12.970;2022-12-07T13:23:21;2.37;;;1.30;;
3571;SDS011;7958;53.024;12.970;2022-12-07T13:25:59;1.50;;;1.40;;
3571;SDS011;7958;53.024;12.970;2022-12-07T13:28:32;1.20;;;1.10;;
3571;SDS011;7958;53.024;12.970;2022-12-07T13:31:02;4.40;;;1.07;;
3571;SDS011;7958;53.024;12.970;2022-12-07T13:33:35;1.13;;;1.13;;
3571;SDS011;7958;53.024;12.970;2022-12-07T13:36:02;7.50;;;1.27;;
3571;SDS011;7958;53.024;12.970;2022-12-07T13:38:29;1.10;;;1.00;;
3571;SDS011;7958;53.024;12.970;2022-12-07T13:41:01;9.23;;;1.00;;
3571;SDS011;7958;53.024;12.970;2022-12-07T13:43:42;3.10;;;1.30;;
3571;SDS011;7958;53.024;12.970;2022-12-07T13:46:10;2.17;;;1.00;;
3571;SDS011;7958;53.024;12.970;2022-12-07T13:48:43;5.20;;;1.13;;
3571;SDS011;7958;53.024;12.970;2022-12-07T13:51:16;1.53;;;1.17;;
3571;SDS011;7958;53.024;12.970;2022-12-07T13:53:46;2.90;;;1.40;;
3571;SDS011;7958;53.024;12.970;2022-12-07T13:56:12;3.07;;;1.03;;
3571;SDS011;7958;53.024;12.970;2022-12-07T13:58:40;4.83;;;1.23;;
3571;SDS011;7958;53.024;12.970;2022-12-07T14:01:07;0.87;;;0.80;;
3571;SDS011;7958;53.024;12.970;2022-12-07T14:03:36;5.17;;;1.40;;
3571;SDS011;7958;53.024;12.970;2022-12-07T14:06:04;2.33;;;0.90;;
3571;SDS011;7958;53.024;12.970;2022-12-07T14:08:33;1.70;;;0.97;;
3571;SDS011;7958;53.024;12.970;2022-12-07T14:10:59;2.20;;;1.57;;
3571;SDS011;7958;53.024;12.970;2022-12-07T14:13:27;10.60;;;6.30;;
3571;SDS011;7958;53.024;12.970;2022-12-07T14:15:56;7.00;;;3.00;;
3571;SDS011;7958;53.024;12.970;2022-12-07T14:18:27;8.97;;;3.60;;
3571;SDS011;7958;53.024;12.970;2022-12-07T14:21:06;2.83;;;2.30;;
3571;SDS011;7958;53.024;12.970;2022-12-07T14:23:41;5.80;;;4.40;;
3571;SDS011;7958;53.024;12.970;2022-12-07T14:26:08;4.50;;;3.10;;
3571;SDS011;7958;53.024;12.970;2022-12-07T14:28:38;8.00;;;3.10;;
3571;SDS011;7958;53.024;12.970;2022-12-07T14:31:07;3.17;;;2.70;;
3571;SDS011;7958;53.024;12.970;2022-12-07T14:33:36;4.70;;;2.07;;
3571;SDS011;7958;53.024;12.970;2022-12-07T14:36:07;20.83;;;15.53;;
3571;SDS011;7958;53.024;12.970;2022-12-07T14:38:35;28.70;;;19.67;;
3571;SDS011;7958;53.024;12.970;2022-12-07T14:41:02;18.63;;;12.50;;
3571;SDS011;7958;53.024;12.970;2022-12-07T14:43:43;12.87;;;8.90;;
3571;SDS011;7958;53.024;12.970;2022-12-07T14:46:18;2.33;;;2.10;;
3571;SDS011;7958;53.024;12.970;2022-12-07T14:48:45;2.00;;;1.80;;
3571;SDS011;7958;53.024;12.970;2022-12-07T14:51:13;3.93;;;1.57;;
3571;SDS011;7958;53.024;12.970;2022-12-07T14:53:40;3.00;;;1.23;;
3571;SDS011;7958;53.024;12.970;2022-12-07T14:56:08;6.03;;;1.50;;
3571;SDS011;7958;53.024;12.970;2022-12-07T14:58:38;2.23;;;1.67;;
3571;SDS011;7958;53.024;12.970;2022-12-07T15:01:07;1.03;;;0.93;;
3571;SDS011;7958;53.024;12.970;2022-12-07T15:03:34;2.20;;;1.57;;
3571;SDS011;7958;53.024;12.970;2022-12-07T15:06:02;1.50;;;0.80;;
3571;SDS011;7958;53.024;12.970;2022-12-07T15:08:32;2.30;;;1.10;;
3571;SDS011;7958;53.024;12.970;2022-12-07T15:11:01;4.33;;;1.20;;
3571;SDS011;7958;53.024;12.970;2022-12-07T15:13:28;3.10;;;2.10;;
3571;SDS011;7958;53.024;12.970;2022-12-07T15:16:12;2.30;;;1.20;;
3571;SDS011;7958;53.024;12.970;2022-12-07T15:18:39;4.80;;;2.07;;
3571;SDS011;7958;53.024;12.970;2022-12-07T15:21:10;1.40;;;1.30;;
3571;SDS011;7958;53.024;12.970;2022-12-07T15:23:46;4.40;;;1.37;;
3571;SDS011;7958;53.024;12.970;2022-12-07T15:26:14;2.27;;;1.20;;
3571;SDS011;7958;53.024;12.970;2022-12-07T15:28:49;1.10;;;1.10;;
3571;SDS011;7958;53.024;12.970;2022-12-07T15:31:16;8.10;;;4.03;;
3571;SDS011;7958;53.024;12.970;2022-12-07T15:33:43;10.20;;;3.53;;
3571;SDS011;7958;53.024;12.970;2022-12-07T15:36:14;8.37;;;5.50;;
3571;SDS011;7958;53.024;12.970;2022-12-07T15:38:46;18.97;;;11.37;;
3571;SDS011;7958;53.024;12.970;2022-12-07T15:41:13;6.13;;;4.67;;
3571;SDS011;7958;53.024;12.970;2022-12-07T15:43:39;2.90;;;1.53;;
3571;SDS011;7958;53.024;12.970;2022-12-07T15:46:28;5.53;;;1.40;;
3571;SDS011;7958;53.024;12.970;2022-12-07T15:48:55;1.20;;;1.17;;
3571;SDS011;7958;53.024;12.970;2022-12-07T15:51:22;3.97;;;1.70;;
3571;SDS011;7958;53.024;12.970;2022-12-07T15:53:53;1.30;;;1.00;;
3571;SDS011;7958;53.024;12.970;2022-12-07T15:56:20;3.13;;;1.10;;
3571;SDS011;7958;53.024;12.970;2022-12-07T15:58:47;2.00;;;1.10;;
3571;SDS011;7958;53.024;12.970;2022-12-07T16:01:14;3.17;;;1.60;;
3571;SDS011;7958;53.024;12.970;2022-12-07T16:03:41;4.27;;;1.40;;
3571;SDS011;7958;53.024;12.970;2022-12-07T16:06:08;3.40;;;1.20;;
3571;SDS011;7958;53.024;12.970;2022-12-07T16:08:35;2.40;;;1.93;;
3571;SDS011;7958;53.024;12.970;2022-12-07T16:11:05;1.70;;;1.10;;
3571;SDS011;7958;53.024;12.970;2022-12-07T16:13:32;3.60;;;1.10;;
3571;SDS011;7958;53.024;12.970;2022-12-07T16:16:01;3.20;;;1.27;;
3571;SDS011;7958;53.024;12.970;2022-12-07T16:18:28;5.20;;;1.73;;